ADDS METAR Data INFO
IDs: Format: Raw Decoded Include TAF

Data at: 2228 UTC 11 Dec 2017

KSEZ 112215Z AUTO 04009G14KT 010V070 10SM CLR 17/M20 A3034 RMK AO2
KSEZ 112155Z AUTO 26003KT 10SM CLR 16/M16 A3034 RMK AO2
KSEZ 112135Z AUTO 28004KT 10SM CLR 17/M16 A3033 RMK AO2
KSEZ 112115Z AUTO 00000KT 10SM CLR 17/M17 A3033 RMK AO2
KSEZ 112055Z AUTO 19004KT 10SM CLR 17/M16 A3033 RMK AO2
KSEZ 112035Z AUTO 23003KT 10SM CLR 17/M16 A3033 RMK AO2
KSEZ 112015Z AUTO 16004KT 10SM CLR 17/M17 A3034 RMK AO2
KSEZ 111955Z AUTO 07010G17KT 10SM CLR 16/M19 A3034 RMK AO2
KSEZ 111935Z AUTO 03004KT 10SM CLR 16/M18 A3036 RMK AO2
KSEZ 111915Z AUTO 05006KT 10SM CLR 15/M17 A3037 RMK AO2
KSEZ 111855Z AUTO 04004KT 10SM CLR 13/M17 A3039 RMK AO2
KSEZ 111835Z AUTO 00000KT 10SM CLR 13/M17 A3040 RMK AO2
KSEZ 111815Z AUTO 07004KT 10SM CLR 13/M17 A3040 RMK AO2
KSEZ 111755Z AUTO 06003KT 10SM CLR 12/M17 A3041 RMK AO2
KSEZ 111735Z AUTO 00000KT 10SM CLR 10/M17 A3041 RMK AO2
KSEZ 111715Z AUTO 00000KT 10SM CLR 10/M18 A3041 RMK AO2
KSEZ 111655Z AUTO 00000KT 10SM CLR 10/M18 A3041 RMK AO2
KSEZ 111635Z AUTO 08003KT 10SM CLR 10/M18 A3041 RMK AO2
KSEZ 111615Z AUTO 06009G15KT 10SM CLR 10/M18 A3041 RMK AO2
KSEZ 111555Z AUTO 06010G17KT 10SM CLR 09/M18 A3041 RMK AO2
KSEZ 111535Z AUTO 04012G18KT 10SM CLR 09/M17 A3041 RMK AO2
KSEZ 111515Z AUTO 04014G21KT 10SM CLR 09/M18 A3041 RMK AO2
KSEZ 111455Z AUTO 04014G20KT 10SM CLR 09/M18 A3040 RMK AO2
KSEZ 111435Z AUTO 04013G22KT 10SM CLR 09/M18 A3040 RMK AO2
KSEZ 111415Z AUTO 04016G26KT 10SM CLR 10/M17 A3040 RMK AO2
KSEZ 111355Z AUTO 03016G19KT 10SM CLR 10/M18 A3040 RMK AO2
KSEZ 111335Z AUTO 04014G20KT 10SM CLR 10/M18 A3039 RMK AO2
KSEZ 111315Z AUTO 03015G20KT 10SM CLR 10/M18 A3039 RMK AO2
KSEZ 111255Z AUTO 04013G17KT 10SM CLR 10/M18 A3038 RMK AO2
KSEZ 111235Z AUTO 03013G19KT 10SM CLR 10/M18 A3039 RMK AO2
KSEZ 111215Z AUTO 04013KT 10SM CLR 10/M18 A3038 RMK AO2
KSEZ 111155Z AUTO 04012G16KT 10SM CLR 10/M18 A3038 RMK AO2
KSEZ 111135Z AUTO 04012KT 10SM CLR 10/M18 A3038 RMK AO2
KSEZ 111115Z AUTO 04013G18KT 10SM CLR 11/M18 A3038 RMK AO2
KSEZ 111055Z AUTO 04013KT 10SM CLR 11/M18 A3039 RMK AO2
KSEZ 111035Z AUTO 03013G18KT 10SM CLR 11/M18 A3039 RMK AO2
KSEZ 111015Z AUTO 03013G19KT 10SM CLR 11/M18 A3040 RMK AO2
KSEZ 110955Z AUTO 04014G17KT 10SM CLR 11/M18 A3040 RMK AO2
KSEZ 110935Z AUTO 05010KT 10SM CLR 11/M18 A3040 RMK AO2
KSEZ 110915Z AUTO 05012G16KT 10SM CLR 11/M18 A3040 RMK AO2
KSEZ 110855Z AUTO 04012G19KT 10SM CLR 10/M18 A3040 RMK AO2
KSEZ 110835Z AUTO 04012G19KT 10SM CLR 10/M19 A3040 RMK AO2
KSEZ 110815Z AUTO 03012G19KT 10SM CLR 10/M19 A3040 RMK AO2
KSEZ 110755Z AUTO 03013G18KT 10SM CLR 10/M20 A3040 RMK AO2
KSEZ 110735Z AUTO 02012G16KT 10SM CLR 10/M19 A3041 RMK AO2
KSEZ 110715Z AUTO 03013G20KT 10SM CLR 11/M18 A3041 RMK AO2
KSEZ 110655Z AUTO 03011G18KT 10SM CLR 11/M19 A3041 RMK AO2
KSEZ 110635Z AUTO 03012G20KT 10SM CLR 11/M19 A3041 RMK AO2
KSEZ 110615Z AUTO 03012KT 10SM CLR 11/M19 A3042 RMK AO2
KSEZ 110555Z AUTO 02010KT 10SM CLR 11/M19 A3041 RMK AO2
KSEZ 110535Z AUTO 03010KT 10SM CLR 11/M20 A3041 RMK AO2
KSEZ 110515Z AUTO 04009KT 10SM CLR 11/M21 A3041 RMK AO2
KSEZ 110455Z AUTO 04008KT 10SM CLR 11/M21 A3040 RMK AO2
KSEZ 110435Z AUTO 05008KT 10SM CLR 12/M21 A3040 RMK AO2
KSEZ 110415Z AUTO 05009KT 010V080 10SM CLR 12/M22 A3040 RMK AO2
KSEZ 110355Z AUTO 03013KT 10SM CLR 12/M22 A3039 RMK AO2
KSEZ 110335Z AUTO 03014KT 10SM CLR 12/M22 A3038 RMK AO2
KSEZ 110315Z AUTO 03012G17KT 10SM CLR 12/M22 A3037 RMK AO2
KSEZ 110255Z AUTO 03017G21KT 10SM CLR 12/M21 A3038 RMK AO2
KSEZ 110235Z AUTO 03014G19KT 10SM CLR 12/M20 A3038 RMK AO2
KSEZ 110215Z AUTO 03012G18KT 10SM CLR 12/M20 A3038 RMK AO2
KSEZ 110155Z AUTO 03014G19KT 10SM CLR 12/M18 A3037 RMK AO2
KSEZ 110135Z AUTO 04013G18KT 10SM CLR 12/M17 A3037 RMK AO2
KSEZ 110115Z AUTO 03014G17KT 10SM CLR 12/M17 A3037 RMK AO2
KSEZ 110055Z AUTO 03011KT 10SM CLR 12/M16 A3037 RMK AO2
KSEZ 110035Z AUTO 04008KT 10SM CLR 13/M16 A3037 RMK AO2
KSEZ 110015Z AUTO 06011G16KT 030V090 10SM CLR 13/M16 A3037 RMK AO2
KSEZ 102355Z AUTO 04010G14KT 10SM CLR 14/M16 A3038 RMK AO2
KSEZ 102335Z AUTO 04012G15KT 10SM CLR 15/M16 A3037 RMK AO2
KSEZ 102315Z AUTO 06009KT 10SM CLR 16/M16 A3037 RMK AO2
KSEZ 102255Z AUTO 08011G20KT 10SM CLR 16/M17 A3037 RMK AO2
KSEZ 102235Z AUTO 07014G20KT 10SM CLR 17/M16 A3037 RMK AO2
KSEZ 102215Z AUTO 07014G19KT 10SM CLR 17/M16 A3036 RMK AO2
KSEZ 102155Z AUTO 05009G14KT 10SM CLR 18/M16 A3036 RMK AO2
KSEZ 102135Z AUTO 08008G15KT 010V110 10SM CLR 20/M15 A3035 RMK AO2
KSEZ 102115Z AUTO 36003KT 10SM CLR 19/M15 A3035 RMK AO2
KSEZ 102055Z AUTO 20003KT 10SM CLR 20/M13 A3036 RMK AO2
KSEZ 102035Z AUTO 15004KT 10SM CLR 21/M13 A3037 RMK AO2
KSEZ 102015Z AUTO 14005KT 10SM CLR 20/M13 A3037 RMK AO2
KSEZ 101955Z AUTO 00000KT 10SM CLR 20/M13 A3039 RMK AO2
KSEZ 101935Z AUTO 00000KT 10SM CLR 18/M13 A3040 RMK AO2
KSEZ 101915Z AUTO 09006G14KT 10SM CLR 19/M14 A3041 RMK AO2
KSEZ 101855Z AUTO 03006KT 10SM CLR 18/M14 A3042 RMK AO2
KSEZ 101835Z AUTO 06011G17KT 10SM CLR 18/M14 A3044 RMK AO2
KSEZ 101815Z AUTO 04010G15KT 020V080 10SM CLR 17/M14 A3045 RMK AO2
KSEZ 101755Z AUTO 03009KT 360V080 10SM CLR 16/M14 A3046 RMK AO2
KSEZ 101735Z AUTO 05006KT 10SM CLR 15/M14 A3047 RMK AO2
KSEZ 101715Z AUTO 07006KT 030V100 10SM CLR 15/M14 A3047 RMK AO2
KSEZ 101655Z AUTO 08007KT 10SM CLR 13/M15 A3047 RMK AO2
KSEZ 101635Z AUTO 07007KT 030V100 10SM CLR 13/M15 A3046 RMK AO2
KSEZ 101615Z AUTO 06009KT 10SM CLR 12/M15 A3045 RMK AO2
KSEZ 101555Z AUTO 06009G14KT 10SM CLR 11/M15 A3045 RMK AO2
KSEZ 101535Z AUTO 05006KT 10SM CLR 10/M16 A3045 RMK AO2
KSEZ 101515Z AUTO 04012KT 10SM CLR 09/M16 A3045 RMK AO2
KSEZ 101455Z AUTO 03013G17KT 10SM CLR 09/M15 A3045 RMK AO2
KSEZ 101435Z AUTO 04014G19KT 10SM CLR 09/M15 A3045 RMK AO2
KSEZ 101415Z AUTO 04013G16KT 10SM CLR 09/M15 A3045 RMK AO2
KSEZ 101355Z AUTO 05008G14KT 10SM CLR 08/M15 A3045 RMK AO2
KSEZ 101335Z AUTO 04011G17KT 10SM CLR 08/M15 A3045 RMK AO2
KSEZ 101315Z AUTO 04011G17KT 10SM CLR 09/M15 A3044 RMK AO2
KSEZ 101255Z AUTO 05011G16KT 10SM CLR 08/M15 A3044 RMK AO2
KSEZ 101235Z AUTO 04012KT 10SM CLR 08/M15 A3044 RMK AO2
KSEZ 101215Z AUTO 04011G15KT 10SM CLR 08/M15 A3044 RMK AO2
KSEZ 101155Z AUTO 05011G18KT 10SM CLR 08/M15 A3043 RMK AO2
KSEZ 101135Z AUTO 04013G18KT 10SM CLR 08/M15 A3044 RMK AO2
KSEZ 101115Z AUTO 03012G18KT 10SM CLR 08/M15 A3044 RMK AO2
KSEZ 101055Z AUTO 04011KT 10SM CLR 08/M15 A3044 RMK AO2
KSEZ 101035Z AUTO 03013G16KT 10SM CLR 08/M14 A3044 RMK AO2